METAR Data

Data at: 0950 UTC 23 Jul 2019

METAR for:KORD (Chicago/O'Hare Intl, IL, US)
Text:KORD 230851Z 30006KT 10SM FEW075 17/11 A3008 RMK AO2 SLP183 T01720111 56004
Temperature: 17.2°C ( 63°F)
Dewpoint: 11.1°C ( 52°F) [RH = 67%]
Pressure (altimeter):30.08 inches Hg (1018.7 mb) [Sea level pressure: 1018.3 mb]
Winds:from the WNW (300 degrees) at 7 MPH (6 knots; 3.1 m/s)
Visibility:10 or more sm (16+ km)
Ceiling:at least 12,000 feet AGL
Clouds: few clouds at 7500 feet AGL